createdAt,value
2022-11-25T00:02:59.361Z,99746.91
2022-11-25T00:08:01.095Z,99746.53
2022-11-25T00:13:03.909Z,99747.13
2022-11-25T00:18:05.653Z,99740.38
2022-11-25T00:23:07.305Z,99748.84
2022-11-25T00:28:08.967Z,99746.44
2022-11-25T00:33:10.632Z,99741.78
2022-11-25T00:38:12.295Z,99743.75
2022-11-25T00:43:32.504Z,99747.31
2022-11-25T00:48:34.172Z,99751.22
2022-11-25T00:53:35.853Z,99751.75
2022-11-25T00:58:37.676Z,99748.28
2022-11-25T01:03:39.586Z,99747.50
2022-11-25T01:08:41.379Z,99749.06
2022-11-25T01:13:43.142Z,99750.69
2022-11-25T01:18:45.436Z,99754.25
2022-11-25T01:23:48.617Z,99748.28
2022-11-25T01:28:55.010Z,99757.25
2022-11-25T01:34:00.193Z,99748.97
2022-11-25T01:39:01.921Z,99744.97
2022-11-25T01:44:21.019Z,99751.63
2022-11-25T01:49:29.172Z,99744.00
2022-11-25T01:54:35.621Z,99739.47
2022-11-25T01:59:41.994Z,99747.50
2022-11-25T02:04:44.927Z,99751.28
2022-11-25T02:09:47.503Z,99744.59
2022-11-25T02:14:51.985Z,99740.44
2022-11-25T02:20:01.374Z,99742.72
2022-11-25T02:25:22.284Z,99741.88
2022-11-25T02:30:24.121Z,99743.31
2022-11-25T02:35:30.948Z,99738.44
2022-11-25T02:40:36.360Z,99738.88
2022-11-25T02:45:53.022Z,99744.09
2022-11-25T02:50:55.578Z,99748.72
2022-11-25T02:55:57.350Z,99752.22
2022-11-25T03:00:59.104Z,99749.69
2022-11-25T03:06:01.136Z,99748.44
2022-11-25T03:11:02.867Z,99756.03
2022-11-25T03:16:05.071Z,99757.00
2022-11-25T03:21:07.515Z,99764.84
2022-11-25T03:26:10.025Z,99756.03
2022-11-25T03:31:12.284Z,99755.88
2022-11-25T03:36:14.113Z,99765.97
2022-11-25T03:41:15.908Z,99773.81
2022-11-25T03:46:18.658Z,99768.63
2022-11-25T03:51:21.287Z,99771.19
2022-11-25T03:56:23.762Z,99776.09
2022-11-25T04:01:25.662Z,99777.78
2022-11-25T04:06:27.567Z,99777.63
2022-11-25T04:11:48.380Z,99778.34
2022-11-25T04:16:50.774Z,99778.06
2022-11-25T04:21:53.227Z,99783.69
2022-11-25T04:26:55.340Z,99782.81
2022-11-25T04:31:57.041Z,99788.19
2022-11-25T04:36:59.356Z,99799.13
2022-11-25T04:42:20.300Z,99784.50
2022-11-25T04:47:22.079Z,99792.38
2022-11-25T04:52:24.415Z,99791.69
2022-11-25T04:57:27.673Z,99786.91
2022-11-25T05:02:29.804Z,99784.75
2022-11-25T05:07:40.840Z,99782.03
2022-11-25T05:12:42.799Z,99779.41
2022-11-25T05:17:48.310Z,99777.75
2022-11-25T05:22:54.420Z,99762.81
2022-11-25T05:27:57.396Z,99762.75
2022-11-25T05:32:59.254Z,99772.16
2022-11-25T05:38:04.044Z,99774.94
2022-11-25T05:43:06.045Z,99771.78
2022-11-25T05:48:10.610Z,99778.00
2022-11-25T05:53:12.554Z,99789.03
2022-11-25T05:58:16.051Z,99786.19
2022-11-25T06:03:26.103Z,99787.28
2022-11-25T06:08:28.449Z,99788.88
2022-11-25T06:13:32.285Z,99792.38
2022-11-25T06:18:34.082Z,99799.59
2022-11-25T06:23:38.847Z,99800.44
2022-11-25T06:28:40.731Z,99813.09
2022-11-25T06:33:43.223Z,99817.94
2022-11-25T06:38:51.948Z,99815.50
2022-11-25T06:43:53.645Z,99816.41
2022-11-25T06:48:55.380Z,99826.16
2022-11-25T06:53:57.099Z,99818.56
2022-11-25T06:58:58.805Z,99830.31
2022-11-25T07:04:03.802Z,99839.09
2022-11-25T07:09:06.199Z,99845.09
2022-11-25T07:14:13.259Z,99846.22
2022-11-25T07:19:16.910Z,99859.47
2022-11-25T07:24:18.788Z,99853.69
2022-11-25T07:29:51.577Z,99861.59
2022-11-25T07:34:42.702Z,99861.59
2022-11-25T07:39:44.391Z,99862.47
2022-11-25T07:44:46.081Z,99856.41
2022-11-25T07:50:26.258Z,99858.34
2022-11-25T07:55:27.995Z,99861.97
2022-11-25T08:00:29.679Z,99857.28
2022-11-25T08:05:33.404Z,99862.06
2022-11-25T08:10:35.122Z,99856.06
2022-11-25T08:15:36.838Z,99856.41
2022-11-25T08:20:38.629Z,99856.75
2022-11-25T08:25:43.018Z,99863.25
2022-11-25T08:30:47.993Z,99864.25
2022-11-25T08:35:55.672Z,99874.31
2022-11-25T08:40:57.788Z,99874.88
2022-11-25T08:45:59.548Z,99887.38
2022-11-25T08:51:01.257Z,99874.22
2022-11-25T08:56:03.008Z,99881.31
2022-11-25T09:01:06.765Z,99871.50
2022-11-25T09:06:09.572Z,99875.56
2022-11-25T09:11:12.044Z,99874.38
2022-11-25T09:16:15.273Z,99870.38
2022-11-25T09:21:17.926Z,99868.72
2022-11-25T09:26:25.618Z,99870.50
2022-11-25T09:31:27.470Z,99868.31
2022-11-25T09:36:29.202Z,99878.84
2022-11-25T09:42:15.030Z,99869.88
2022-11-25T09:47:48.325Z,99865.91
2022-11-25T09:53:40.058Z,99877.25
2022-11-25T09:59:13.755Z,99871.91
2022-11-25T10:04:25.994Z,99873.06
2022-11-25T10:09:34.666Z,99865.41
2022-11-25T10:14:46.614Z,99865.41
2022-11-25T10:19:56.826Z,99862.34
2022-11-25T10:25:02.150Z,99854.53
2022-11-25T10:30:15.442Z,99861.34
2022-11-25T10:35:39.141Z,99851.44
2022-11-25T10:40:45.217Z,99847.69
2022-11-25T10:45:57.393Z,99845.03
2022-11-25T10:51:29.293Z,99852.00
2022-11-25T10:56:30.995Z,99843.44
2022-11-25T11:01:32.741Z,99843.00
2022-11-25T11:06:42.446Z,99834.88
2022-11-25T11:11:49.289Z,99841.03
2022-11-25T11:16:55.777Z,99835.09
2022-11-25T11:22:15.986Z,99825.94
2022-11-25T11:27:25.469Z,99815.47
2022-11-25T11:32:29.163Z,99813.72
2022-11-25T11:37:45.927Z,99816.41
2022-11-25T11:43:02.813Z,99808.63
2022-11-25T11:48:30.851Z,99809.78
2022-11-25T11:54:30.841Z,99807.59
2022-11-25T12:00:00.216Z,99813.63
2022-11-25T12:05:12.910Z,99814.63
2022-11-25T12:10:14.546Z,99816.25
2022-11-25T12:15:37.735Z,99806.19
2022-11-25T12:20:57.492Z,99800.38
2022-11-25T12:26:06.138Z,99799.34
2022-11-25T12:31:47.685Z,99793.97
2022-11-25T12:36:49.412Z,99789.88
2022-11-25T12:41:59.823Z,99794.28
2022-11-25T12:47:01.938Z,99793.78
2022-11-25T12:52:28.883Z,99788.78
2022-11-25T12:57:41.975Z,99788.94
2022-11-25T13:03:24.361Z,99794.81
2022-11-25T13:08:44.464Z,99799.94
2022-11-25T13:14:12.953Z,99803.81
2022-11-25T13:19:19.361Z,99812.13
2022-11-25T13:24:34.879Z,99814.88
2022-11-25T13:29:39.546Z,99815.41
2022-11-25T13:34:41.287Z,99817.56
2022-11-25T13:39:46.202Z,99826.84
2022-11-25T13:44:54.211Z,99820.75
2022-11-25T13:50:07.351Z,99831.13
2022-11-25T13:55:33.345Z,99831.69
2022-11-25T14:00:37.751Z,99835.25
2022-11-25T14:05:45.288Z,99840.16
2022-11-25T14:11:11.356Z,99845.34
2022-11-25T14:16:36.032Z,99842.94
2022-11-25T14:22:03.952Z,99851.66
2022-11-25T14:27:14.160Z,99843.97
2022-11-25T14:32:44.136Z,99867.44
2022-11-25T14:37:51.781Z,99873.66
2022-11-25T14:43:02.399Z,99873.25
2022-11-25T14:48:24.411Z,99880.09
2022-11-25T14:53:26.632Z,99888.06
2022-11-25T14:58:29.460Z,99903.22
2022-11-25T15:03:31.553Z,99897.38
2022-11-25T15:08:42.784Z,99898.78
2022-11-25T15:13:51.637Z,99898.78
2022-11-25T15:18:57.368Z,99902.75
2022-11-25T15:23:59.513Z,99908.28
2022-11-25T15:29:10.370Z,99901.97
2022-11-25T15:34:14.157Z,99920.72
2022-11-25T15:39:21.821Z,99936.84
2022-11-25T15:44:38.606Z,99945.91
2022-11-25T15:49:40.453Z,99937.16
2022-11-25T15:54:48.706Z,99949.38
2022-11-25T15:59:53.372Z,99947.19
2022-11-25T16:05:13.052Z,99953.66
2022-11-25T16:10:28.690Z,99954.53
2022-11-25T16:15:58.649Z,99978.56
2022-11-25T16:21:08.639Z,99987.41
2022-11-25T16:26:13.243Z,99987.16
2022-11-25T16:31:16.815Z,99986.09
2022-11-25T16:36:19.275Z,99984.16
2022-11-25T16:41:24.723Z,99982.00
2022-11-25T16:46:26.797Z,99988.34
2022-11-25T16:51:28.510Z,99991.56
2022-11-25T16:56:30.294Z,99989.63
2022-11-25T17:01:34.402Z,99990.91
2022-11-25T17:06:37.348Z,99989.75
2022-11-25T17:11:46.956Z,99993.00
2022-11-25T17:16:48.936Z,99996.38
2022-11-25T17:21:50.674Z,99997.94
2022-11-25T17:27:00.477Z,100002.69
2022-11-25T17:32:03.003Z,100010.16
2022-11-25T17:37:12.349Z,100015.94
2022-11-25T17:42:18.649Z,100025.34
2022-11-25T17:47:20.457Z,100025.19
2022-11-25T17:52:22.127Z,100031.25
2022-11-25T17:57:29.190Z,100029.81
2022-11-25T18:02:31.080Z,100035.75
2022-11-25T18:07:32.861Z,100040.25
2022-11-25T18:12:36.688Z,100048.25
2022-11-25T18:17:39.282Z,100048.38
2022-11-25T18:22:40.970Z,100056.25
2022-11-25T18:27:44.340Z,100063.16
2022-11-25T18:32:46.080Z,100068.91
2022-11-25T18:37:48.475Z,100064.72
2022-11-25T18:42:54.663Z,100077.06
2022-11-25T18:47:56.376Z,100077.34
2022-11-25T18:52:58.044Z,100085.50
2022-11-25T18:58:01.080Z,100091.84
2022-11-25T19:03:02.887Z,100100.69
2022-11-25T19:08:04.961Z,100099.41
2022-11-25T19:13:15.319Z,100104.63
2022-11-25T19:18:25.490Z,100104.06
2022-11-25T19:23:28.864Z,100115.75
2022-11-25T19:28:31.492Z,100110.72
2022-11-25T19:33:36.869Z,100126.47
2022-11-25T19:38:38.536Z,100124.88
2022-11-25T19:43:40.334Z,100134.28
2022-11-25T19:48:42.108Z,100139.47
2022-11-25T19:53:44.440Z,100152.28
2022-11-25T19:58:46.127Z,100163.25
2022-11-25T20:03:50.515Z,100164.53
2022-11-25T20:08:52.277Z,100165.78
2022-11-25T20:13:53.943Z,100169.44
2022-11-25T20:18:55.718Z,100181.00
2022-11-25T20:23:57.844Z,100188.19
2022-11-25T20:28:59.665Z,100193.81
2022-11-25T20:34:01.331Z,100206.47
2022-11-25T20:39:04.170Z,100209.03
2022-11-25T20:44:05.873Z,100215.47
2022-11-25T20:49:20.923Z,100227.72
2022-11-25T20:54:25.635Z,100236.16
2022-11-25T20:59:28.724Z,100242.50
2022-11-25T21:04:30.431Z,100239.56
2022-11-25T21:09:34.890Z,100250.09
2022-11-25T21:14:36.769Z,100253.63
2022-11-25T21:19:38.581Z,100254.34
2022-11-25T21:24:42.440Z,100261.66
2022-11-25T21:29:45.658Z,100266.34
2022-11-25T21:34:47.829Z,100274.66
2022-11-25T21:39:49.662Z,100278.47
2022-11-25T21:44:52.507Z,100275.94
2022-11-25T21:49:54.293Z,100278.22
2022-11-25T21:54:55.989Z,100293.25
2022-11-25T21:59:57.711Z,100293.00
2022-11-25T22:04:59.467Z,100285.09
2022-11-25T22:10:01.142Z,100290.31
2022-11-25T22:15:03.139Z,100303.13
2022-11-25T22:20:14.300Z,100309.91
2022-11-25T22:25:16.168Z,100307.38
2022-11-25T22:30:19.854Z,100307.38
2022-11-25T22:35:21.588Z,100321.75
2022-11-25T22:40:24.015Z,100324.44
2022-11-25T22:45:32.782Z,100343.31
2022-11-25T22:50:35.205Z,100358.63
2022-11-25T22:55:36.904Z,100345.50
2022-11-25T23:00:42.692Z,100361.56
2022-11-25T23:05:44.543Z,100361.00
2022-11-25T23:10:48.345Z,100364.69
2022-11-25T23:15:56.124Z,100368.09
2022-11-25T23:20:57.934Z,100374.56
2022-11-25T23:25:59.816Z,100378.66
2022-11-25T23:31:02.062Z,100375.56
2022-11-25T23:36:10.748Z,100373.00
2022-11-25T23:41:19.039Z,100380.75
2022-11-25T23:46:23.909Z,100379.91
2022-11-25T23:51:28.255Z,100393.56
2022-11-25T23:56:29.980Z,100395.09
